sim
Sign-in with your pilot id or email,
or register
Callsign
Passwort

Schedule Details

Flight Number: EWG7000 (2)
Departure: Hamburg Airport (EDDH) at 06:45
Arrival: Munich Airport (EDDM) at 08:10
Route: Eurowings Passenger Schedule. Enter filed route here before submitting Pirep.

Weather Information
Getting current METAR information for EDDH 010420Z 10007KT 080V140 CAVOK 10/09 Q1008 NOSIG
Getting current METAR information for EDDM 010420Z 07001KT 0700 R08L/0450N R08R/0700N FG FEW001 03/03 Q1009 BECMG 0500 BKN001

Schedule Frequency

Route Map